Time;durP1;ratioP1;P1;durP2;ratioP2;P2;SDS_P1;SDS_P2;PMS_P1;PMS_P2;Temp;Humidity;BMP_temperature;BMP_pressure;BME280_temperature;BME280_humidity;BME280_pressure;Samples;Min_cycle;Max_cycle;Signal;HPM_P1;HPM_P2
2023/09/02 00:00:43;;;;;;;3.55;2.88;;;14.10;99.90;;;;;;5069716;28;20039;-76
2023/09/02 00:03:09;;;;;;;4.60;2.40;;;14.10;99.90;;;;;;5063486;28;20045;-76
2023/09/02 00:05:34;;;;;;;3.72;2.20;;;14.10;99.90;;;;;;5070391;28;20047;-76
2023/09/02 00:08:00;;;;;;;4.88;2.70;;;14.00;99.90;;;;;;5082621;28;20031;-76
2023/09/02 00:10:25;;;;;;;7.50;2.53;;;14.00;99.90;;;;;;5087363;28;20048;-76
2023/09/02 00:12:51;;;;;;;5.22;3.13;;;14.00;99.90;;;;;;5089229;28;20491;-76
2023/09/02 00:15:16;;;;;;;4.50;3.17;;;14.00;99.90;;;;;;5072948;28;20415;-76
2023/09/02 00:17:42;;;;;;;5.57;3.55;;;14.00;99.90;;;;;;5084598;28;20158;-77
2023/09/02 00:20:08;;;;;;;4.82;3.65;;;14.00;99.90;;;;;;5081145;28;20511;-76
2023/09/02 00:22:34;;;;;;;8.75;4.60;;;14.00;99.90;;;;;;5062571;28;20044;-76
2023/09/02 00:24:59;;;;;;;4.63;3.75;;;14.00;99.90;;;;;;5062001;28;20454;-77
2023/09/02 00:27:25;;;;;;;6.80;4.13;;;14.00;99.90;;;;;;5065092;28;20078;-76
2023/09/02 00:29:51;;;;;;;5.05;3.90;;;14.00;99.90;;;;;;5074417;28;20122;-77
2023/09/02 00:32:17;;;;;;;14.73;4.68;;;14.00;99.90;;;;;;5079425;28;20063;-76
2023/09/02 00:34:42;;;;;;;6.22;4.00;;;14.00;99.90;;;;;;5073728;28;20043;-76
2023/09/02 00:37:08;;;;;;;5.82;4.63;;;13.90;99.90;;;;;;5075743;28;20487;-76
2023/09/02 00:39:34;;;;;;;4.63;3.72;;;13.90;99.90;;;;;;5066995;28;20033;-76
2023/09/02 00:42:00;;;;;;;7.68;4.13;;;13.90;99.90;;;;;;5063645;28;20090;-76
2023/09/02 00:44:26;;;;;;;7.55;4.10;;;13.90;99.90;;;;;;5069301;28;20048;-76
2023/09/02 00:46:52;;;;;;;5.18;4.30;;;13.90;99.90;;;;;;5078632;28;20127;-77
2023/09/02 00:49:18;;;;;;;5.32;4.32;;;13.90;99.90;;;;;;5064267;28;20044;-76
2023/09/02 00:51:43;;;;;;;6.03;3.92;;;13.80;99.90;;;;;;5066968;28;20514;-76
2023/09/02 00:54:09;;;;;;;4.28;3.83;;;13.80;99.90;;;;;;5062581;28;20074;-76
2023/09/02 00:56:36;;;;;;;7.80;3.97;;;13.80;99.90;;;;;;5056595;28;20499;-76
2023/09/02 00:59:04;;;;;;;6.35;4.45;;;13.70;99.90;;;;;;5069948;28;20036;-75
2023/09/02 01:01:33;;;;;;;6.47;4.20;;;13.70;99.90;;;;;;5068670;28;20042;-76
2023/09/02 01:03:59;;;;;;;8.10;4.07;;;13.70;99.90;;;;;;5073083;28;20040;-76
2023/09/02 01:06:25;;;;;;;5.03;3.97;;;13.60;99.90;;;;;;5065278;28;20495;-76
2023/09/02 01:08:51;;;;;;;6.85;4.25;;;13.60;99.90;;;;;;5071467;28;20039;-75
2023/09/02 01:11:17;;;;;;;5.72;3.95;;;13.60;99.90;;;;;;5065878;28;20601;-76
2023/09/02 01:13:43;;;;;;;4.75;4.22;;;13.60;99.90;;;;;;5065073;28;20126;-76
2023/09/02 01:16:08;;;;;;;5.53;3.85;;;13.60;99.90;;;;;;5062489;28;20036;-76
2023/09/02 01:18:35;;;;;;;4.93;3.88;;;13.60;99.90;;;;;;5072613;28;20390;-75
2023/09/02 01:21:19;;;;;;;4.90;3.83;;;13.60;99.90;;;;;;5068918;28;20107;-76
2023/09/02 01:24:06;;;;;;;6.18;3.95;;;13.50;99.90;;;;;;5066116;28;20032;-76
2023/09/02 01:27:09;;;;;;;7.53;4.18;;;13.50;99.90;;;;;;5067741;28;20050;-75
2023/09/02 01:29:41;;;;;;;6.13;4.25;;;13.50;99.90;;;;;;5062483;28;20568;-76
2023/09/02 01:32:09;;;;;;;6.10;3.92;;;13.50;99.90;;;;;;5058343;28;20058;-75
2023/09/02 01:34:37;;;;;;;5.03;3.88;;;13.50;99.90;;;;;;5072649;28;20093;-76
2023/09/02 01:37:05;;;;;;;5.07;3.72;;;13.50;99.90;;;;;;5079333;28;20031;-76
2023/09/02 01:39:32;;;;;;;6.68;3.40;;;13.50;99.90;;;;;;5056044;28;20131;-76
2023/09/02 01:42:00;;;;;;;5.68;4.15;;;13.50;99.90;;;;;;5063706;28;20566;-76
2023/09/02 01:44:26;;;;;;;6.22;3.92;;;13.50;99.90;;;;;;5073210;28;20690;-76
2023/09/02 01:46:52;;;;;;;4.80;3.53;;;13.40;99.90;;;;;;5063246;28;20040;-76
2023/09/02 01:49:18;;;;;;;6.80;3.75;;;13.30;99.90;;;;;;5063029;28;20050;-76
2023/09/02 01:51:44;;;;;;;7.97;3.90;;;13.30;99.90;;;;;;5065384;28;20044;-76
2023/09/02 01:54:11;;;;;;;7.10;3.80;;;13.30;99.90;;;;;;5063046;28;20094;-76
2023/09/02 01:56:37;;;;;;;5.15;3.90;;;13.30;99.90;;;;;;5067861;28;20058;-77
2023/09/02 01:59:03;;;;;;;3.35;2.83;;;13.30;99.90;;;;;;5062790;28;20036;-76
2023/09/02 02:01:29;;;;;;;3.65;2.35;;;13.30;99.90;;;;;;5066762;28;20059;-76
2023/09/02 02:04:18;;;;;;;7.60;2.50;;;13.30;99.90;;;;;;5071471;28;20040;-76
2023/09/02 02:06:45;;;;;;;3.72;2.42;;;13.30;99.90;;;;;;5077801;28;20028;-76
2023/09/02 02:09:13;;;;;;;5.35;2.90;;;13.30;99.90;;;;;;5064416;28;20537;-75
2023/09/02 02:11:39;;;;;;;7.80;3.85;;;13.30;99.90;;;;;;5060933;28;20043;-76
2023/09/02 02:14:06;;;;;;;3.45;3.15;;;13.30;99.90;;;;;;5063519;28;20492;-76
2023/09/02 02:16:32;;;;;;;3.67;2.67;;;13.30;99.90;;;;;;5066091;28;20094;-76
2023/09/02 02:18:59;;;;;;;4.97;3.65;;;13.30;99.90;;;;;;5066783;28;20043;-76
2023/09/02 02:21:26;;;;;;;5.45;3.47;;;13.20;99.90;;;;;;5069011;28;20431;-76
2023/09/02 02:23:51;;;;;;;4.85;2.95;;;13.20;99.90;;;;;;5062741;28;20107;-76
2023/09/02 02:26:17;;;;;;;4.85;3.60;;;13.00;99.90;;;;;;5062613;28;20558;-76
2023/09/02 02:28:43;;;;;;;5.82;3.78;;;12.90;99.90;;;;;;5065186;28;20142;-76
2023/09/02 02:31:09;;;;;;;5.50;4.35;;;12.90;99.90;;;;;;5065807;28;20523;-75
2023/09/02 02:33:36;;;;;;;6.43;3.67;;;12.80;99.90;;;;;;5066025;28;20081;-75
2023/09/02 02:36:02;;;;;;;5.10;4.05;;;12.90;99.90;;;;;;5070122;28;20618;-76
2023/09/02 02:38:28;;;;;;;4.53;3.72;;;12.80;99.90;;;;;;5068718;28;20625;-76
2023/09/02 02:40:54;;;;;;;5.50;3.97;;;12.90;99.90;;;;;;5077571;28;20028;-76
2023/09/02 02:43:25;;;;;;;4.93;3.67;;;12.90;99.90;;;;;;5072724;28;20454;-76
2023/09/02 02:45:52;;;;;;;4.30;3.38;;;12.90;99.90;;;;;;5071489;28;20043;-76
2023/09/02 02:48:17;;;;;;;7.40;4.00;;;12.90;99.90;;;;;;5075989;28;20040;-77
2023/09/02 02:50:43;;;;;;;5.85;3.50;;;12.80;99.90;;;;;;5067901;28;20396;-76
2023/09/02 02:53:08;;;;;;;5.32;3.83;;;12.90;99.90;;;;;;5064396;28;20610;-76
2023/09/02 02:55:34;;;;;;;5.68;4.30;;;12.90;99.90;;;;;;5070056;28;20077;-76
2023/09/02 02:57:59;;;;;;;4.90;3.75;;;12.90;99.90;;;;;;5068454;28;20036;-76
2023/09/02 03:00:25;;;;;;;5.60;3.70;;;12.90;99.90;;;;;;5067497;28;20039;-75
2023/09/02 03:02:52;;;;;;;5.13;3.60;;;12.90;99.90;;;;;;5068922;28;20042;-76
2023/09/02 03:05:19;;;;;;;6.38;3.70;;;12.80;99.90;;;;;;5069862;28;20039;-76
2023/09/02 03:07:45;;;;;;;4.45;3.90;;;12.80;99.90;;;;;;5064206;28;20494;-76
2023/09/02 03:10:11;;;;;;;5.05;3.33;;;12.80;99.90;;;;;;5067668;28;20085;-76
2023/09/02 03:12:36;;;;;;;6.57;3.80;;;12.80;99.90;;;;;;5061508;28;20412;-76
2023/09/02 03:15:03;;;;;;;4.82;3.38;;;12.70;99.90;;;;;;5048588;28;20032;-76
2023/09/02 03:17:28;;;;;;;4.53;3.50;;;12.70;99.90;;;;;;5070163;28;20491;-76
2023/09/02 03:19:54;;;;;;;6.50;3.97;;;12.70;99.90;;;;;;5071425;28;20044;-76
2023/09/02 03:22:19;;;;;;;6.93;4.05;;;12.70;99.90;;;;;;5071592;28;20111;-76
2023/09/02 03:24:45;;;;;;;6.82;4.30;;;12.70;99.90;;;;;;5085214;28;20039;-76
2023/09/02 03:27:10;;;;;;;6.78;4.57;;;12.70;99.90;;;;;;5081290;28;20032;-76
2023/09/02 03:29:36;;;;;;;6.93;4.38;;;12.80;99.90;;;;;;5069255;28;20046;-76
2023/09/02 03:32:02;;;;;;;8.63;5.05;;;12.80;99.90;;;;;;5066351;28;20055;-76
2023/09/02 03:34:27;;;;;;;5.82;4.38;;;12.80;99.90;;;;;;5070084;28;20033;-76
2023/09/02 03:36:53;;;;;;;7.78;5.53;;;12.90;99.90;;;;;;5064871;28;20039;-76
2023/09/02 03:39:18;;;;;;;10.25;6.25;;;12.90;99.90;;;;;;5070313;28;20040;-76
2023/09/02 03:41:47;;;;;;;7.05;5.28;;;12.90;99.90;;;;;;5077304;28;20032;-76
2023/09/02 03:44:12;;;;;;;8.65;4.85;;;12.90;99.90;;;;;;5082402;28;20104;-76
2023/09/02 03:46:38;;;;;;;5.85;3.85;;;13.00;99.90;;;;;;5084714;28;20032;-76
2023/09/02 03:49:03;;;;;;;7.30;3.70;;;13.00;99.90;;;;;;5071785;28;20044;-76
2023/09/02 03:51:29;;;;;;;6.15;3.95;;;13.00;99.90;;;;;;5072440;28;20044;-76
2023/09/02 03:53:54;;;;;;;4.22;3.20;;;13.00;99.90;;;;;;5064465;28;20039;-76
2023/09/02 03:56:20;;;;;;;4.80;3.78;;;13.00;99.90;;;;;;5068502;28;20036;-76
2023/09/02 03:58:46;;;;;;;4.57;3.55;;;13.00;99.90;;;;;;5071591;28;20039;-76
2023/09/02 04:01:12;;;;;;;3.97;3.47;;;13.10;99.90;;;;;;5065880;28;20074;-76
2023/09/02 04:03:38;;;;;;;6.35;3.75;;;13.10;99.90;;;;;;5066609;28;20032;-76
2023/09/02 04:06:04;;;;;;;5.25;4.03;;;13.10;99.90;;;;;;5069369;28;20036;-76
2023/09/02 04:08:39;;;;;;;4.80;3.90;;;13.10;99.90;;;;;;5062091;28;20033;-76
2023/09/02 04:11:05;;;;;;;4.25;3.53;;;13.10;99.90;;;;;;5068080;28;20058;-76
2023/09/02 04:13:30;;;;;;;4.57;3.83;;;13.10;99.90;;;;;;5057777;28;20032;-76
2023/09/02 04:15:57;;;;;;;5.28;4.15;;;13.10;99.90;;;;;;5061596;28;20391;-77
2023/09/02 04:18:24;;;;;;;6.30;4.45;;;13.10;99.90;;;;;;5070068;28;20167;-76
2023/09/02 04:20:49;;;;;;;8.02;4.93;;;13.00;99.90;;;;;;5063904;28;20062;-76
2023/09/02 04:23:15;;;;;;;5.28;4.32;;;13.00;99.90;;;;;;5064870;28;20063;-76
2023/09/02 04:25:48;;;;;;;6.10;4.00;;;13.00;99.90;;;;;;5067131;28;20081;-76
2023/09/02 04:28:14;;;;;;;4.68;3.70;;;13.00;99.90;;;;;;5065019;28;20066;-76
2023/09/02 04:30:40;;;;;;;8.02;4.75;;;13.10;99.90;;;;;;5068544;28;20063;-76
2023/09/02 04:33:06;;;;;;;5.45;4.20;;;13.00;99.90;;;;;;5064839;28;20089;-76
2023/09/02 04:35:39;;;;;;;6.55;4.68;;;13.10;99.90;;;;;;5065255;28;20115;-76
2023/09/02 04:38:05;;;;;;;5.00;4.40;;;13.10;99.90;;;;;;5069510;28;20468;-76
2023/09/02 04:40:32;;;;;;;8.10;5.47;;;13.10;99.90;;;;;;5069607;28;20036;-76
2023/09/02 04:42:57;;;;;;;7.90;5.40;;;13.00;99.90;;;;;;5074878;28;20055;-76
2023/09/02 04:45:23;;;;;;;8.00;4.90;;;13.00;99.90;;;;;;5080390;28;20491;-76
2023/09/02 04:47:49;;;;;;;7.05;5.30;;;13.00;99.90;;;;;;5074350;28;20036;-76
2023/09/02 04:50:14;;;;;;;8.07;5.03;;;13.00;99.90;;;;;;5084173;28;20046;-76
2023/09/02 04:52:41;;;;;;;6.55;5.20;;;12.90;99.90;;;;;;5057341;28;20505;-76
2023/09/02 04:55:07;;;;;;;6.70;5.10;;;12.90;99.90;;;;;;5069713;28;20040;-76
2023/09/02 04:57:33;;;;;;;7.43;5.32;;;12.90;99.90;;;;;;5069084;28;20043;-76
2023/09/02 04:59:59;;;;;;;6.80;5.53;;;12.80;99.90;;;;;;5072365;28;20298;-76
2023/09/02 05:02:24;;;;;;;8.27;6.25;;;12.70;99.90;;;;;;5069802;28;20032;-76
2023/09/02 05:04:52;;;;;;;7.78;5.60;;;12.70;99.90;;;;;;5062556;28;20556;-76
2023/09/02 05:07:17;;;;;;;6.78;5.25;;;12.60;99.90;;;;;;5064068;28;20036;-76
2023/09/02 05:09:43;;;;;;;7.22;5.10;;;12.70;99.90;;;;;;5073243;28;20410;-76
2023/09/02 05:12:08;;;;;;;9.63;5.75;;;12.70;99.90;;;;;;5074032;28;20104;-76
2023/09/02 05:14:34;;;;;;;7.03;5.43;;;12.70;99.90;;;;;;5074368;28;20079;-76
2023/09/02 05:16:59;;;;;;;6.47;5.07;;;12.70;99.90;;;;;;5088192;28;20039;-76
2023/09/02 05:19:25;;;;;;;8.38;6.15;;;12.70;99.90;;;;;;5087992;28;20534;-76
2023/09/02 05:21:51;;;;;;;10.50;6.45;;;12.70;99.90;;;;;;5071407;28;20430;-76
2023/09/02 05:24:16;;;;;;;7.53;5.28;;;12.70;99.90;;;;;;5071597;28;20039;-76
2023/09/02 05:26:42;;;;;;;8.88;5.15;;;12.70;99.90;;;;;;5071426;28;20039;-76
2023/09/02 05:29:07;;;;;;;7.13;5.85;;;12.80;99.90;;;;;;5072749;28;20097;-76
2023/09/02 05:31:33;;;;;;;7.90;5.65;;;12.80;99.90;;;;;;5070595;28;20044;-76
2023/09/02 05:33:58;;;;;;;7.90;5.78;;;12.80;99.90;;;;;;5080558;28;20054;-76
2023/09/02 05:36:24;;;;;;;7.72;5.40;;;12.80;99.90;;;;;;5070268;28;20119;-76
2023/09/02 05:38:50;;;;;;;8.77;6.28;;;12.80;99.90;;;;;;5075211;28;20044;-76
2023/09/02 05:41:15;;;;;;;9.70;5.75;;;12.80;99.90;;;;;;5071180;28;20036;-76
2023/09/02 05:43:41;;;;;;;9.25;5.57;;;12.90;99.90;;;;;;5071033;28;20064;-76
2023/09/02 05:46:06;;;;;;;7.35;5.53;;;13.00;99.90;;;;;;5072146;28;20118;-76
2023/09/02 05:48:32;;;;;;;6.55;5.50;;;13.10;99.90;;;;;;5071743;28;20214;-76
2023/09/02 05:50:58;;;;;;;9.27;5.53;;;13.10;99.90;;;;;;5072927;28;20476;-76
2023/09/02 05:53:24;;;;;;;8.02;5.47;;;13.20;99.90;;;;;;5072866;28;20032;-76
2023/09/02 05:55:54;;;;;;;8.45;6.15;;;13.20;99.90;;;;;;5069530;28;20029;-76
2023/09/02 05:58:20;;;;;;;10.98;6.35;;;13.30;99.90;;;;;;5072641;28;20047;-75
2023/09/02 06:00:45;;;;;;;10.23;7.18;;;13.50;99.90;;;;;;5056461;28;20065;-76
2023/09/02 06:03:11;;;;;;;10.20;7.28;;;13.50;99.90;;;;;;5073021;28;20411;-76
2023/09/02 06:05:36;;;;;;;11.43;8.00;;;13.70;99.90;;;;;;5072775;28;20051;-76
2023/09/02 06:08:02;;;;;;;16.63;10.80;;;13.80;99.90;;;;;;5072919;28;20101;-76
2023/09/02 06:10:28;;;;;;;12.80;9.77;;;13.90;99.90;;;;;;5071406;28;20042;-76
2023/09/02 06:12:53;;;;;;;15.90;10.70;;;14.00;99.90;;;;;;5074186;28;20126;-76
2023/09/02 06:15:19;;;;;;;14.20;9.93;;;14.20;99.90;;;;;;5073211;28;20040;-76
2023/09/02 06:17:44;;;;;;;13.88;10.30;;;14.30;99.90;;;;;;5072134;28;20040;-77
2023/09/02 06:20:10;;;;;;;15.18;11.25;;;14.40;99.90;;;;;;5070730;28;20051;-76
2023/09/02 06:22:35;;;;;;;30.60;11.20;;;14.50;99.90;;;;;;5072356;28;20036;-77
2023/09/02 06:25:02;;;;;;;14.35;10.55;;;14.50;99.90;;;;;;5048732;28;20040;-76
2023/09/02 06:27:30;;;;;;;13.75;10.50;;;14.60;99.90;;;;;;5074680;28;20028;-76
2023/09/02 06:29:55;;;;;;;14.35;10.55;;;14.70;99.90;;;;;;5074950;28;20043;-76
2023/09/02 06:32:21;;;;;;;14.73;10.57;;;14.80;99.90;;;;;;5071647;28;20043;-76
2023/09/02 06:34:46;;;;;;;15.00;10.65;;;14.90;99.90;;;;;;5073705;28;20036;-76
2023/09/02 06:37:12;;;;;;;13.95;11.10;;;14.90;99.90;;;;;;5072348;28;20043;-76
2023/09/02 06:39:37;;;;;;;16.05;10.93;;;15.00;99.90;;;;;;5072543;28;20413;-76
2023/09/02 06:42:03;;;;;;;16.05;10.88;;;15.10;99.90;;;;;;5072031;28;20359;-76
2023/09/02 06:44:29;;;;;;;13.52;10.40;;;15.10;99.90;;;;;;5072414;28;20036;-76
2023/09/02 06:46:54;;;;;;;16.48;10.88;;;15.20;99.90;;;;;;5081898;28;20029;-76
2023/09/02 06:49:20;;;;;;;15.93;11.10;;;15.30;99.90;;;;;;5068474;28;20039;-76
2023/09/02 06:51:45;;;;;;;21.33;11.52;;;15.40;99.90;;;;;;5061120;28;20040;-77
2023/09/02 06:54:11;;;;;;;16.92;11.65;;;15.50;99.90;;;;;;5053612;28;20037;-76
2023/09/02 06:56:36;;;;;;;17.15;12.10;;;15.60;99.90;;;;;;5065979;28;20518;-77
2023/09/02 06:59:02;;;;;;;17.48;11.50;;;15.70;99.90;;;;;;5062221;28;20119;-76
2023/09/02 07:01:28;;;;;;;17.13;11.40;;;15.80;99.90;;;;;;5065565;28;20467;-76
2023/09/02 07:03:55;;;;;;;22.35;12.60;;;15.90;99.90;;;;;;5072351;28;20058;-76
2023/09/02 07:06:21;;;;;;;18.45;12.38;;;16.00;99.90;;;;;;5072322;28;20046;-76
2023/09/02 07:08:47;;;;;;;14.82;11.48;;;16.20;99.90;;;;;;5071675;28;20040;-76
2023/09/02 07:11:13;;;;;;;17.95;13.00;;;16.30;99.90;;;;;;5072688;28;20123;-77
2023/09/02 07:13:39;;;;;;;20.00;12.38;;;16.40;99.90;;;;;;5072340;28;20036;-77
2023/09/02 07:16:06;;;;;;;18.73;12.70;;;16.50;99.90;;;;;;5071947;28;20135;-77
2023/09/02 07:18:33;;;;;;;18.15;12.63;;;16.60;99.90;;;;;;5062667;28;20114;-76
2023/09/02 07:21:04;;;;;;;17.15;12.93;;;16.60;99.90;;;;;;5069471;28;20034;-76
2023/09/02 07:23:31;;;;;;;16.30;12.75;;;16.90;99.90;;;;;;5060173;28;20041;-77
2023/09/02 07:26:01;;;;;;;17.02;12.07;;;16.90;99.90;;;;;;5071272;28;20127;-76
2023/09/02 07:28:30;;;;;;;15.23;11.65;;;17.00;99.90;;;;;;5076021;28;20036;-76
2023/09/02 07:31:05;;;;;;;17.08;12.25;;;17.10;99.90;;;;;;5076109;28;20531;-76
2023/09/02 07:33:30;;;;;;;19.10;12.77;;;17.30;99.90;;;;;;5058944;28;20028;-76
2023/09/02 07:35:57;;;;;;;18.30;12.70;;;17.40;99.90;;;;;;5059026;28;20399;-76
2023/09/02 07:38:22;;;;;;;16.13;12.32;;;17.50;99.90;;;;;;5075703;28;20047;-76
2023/09/02 07:40:48;;;;;;;17.90;12.10;;;17.50;99.90;;;;;;5074946;28;20040;-76
2023/09/02 07:43:13;;;;;;;16.40;12.38;;;17.70;99.90;;;;;;5075645;28;20119;-76
2023/09/02 07:45:39;;;;;;;15.70;12.15;;;17.70;99.90;;;;;;5075672;28;20036;-76
2023/09/02 07:48:04;;;;;;;18.35;12.35;;;17.90;99.90;;;;;;5073230;28;20480;-76
2023/09/02 07:50:30;;;;;;;15.65;12.18;;;17.90;99.90;;;;;;5073782;28;20039;-76
2023/09/02 07:52:55;;;;;;;15.32;11.20;;;18.00;99.90;;;;;;5074516;28;20113;-76
2023/09/02 07:55:23;;;;;;;17.48;11.88;;;18.10;99.90;;;;;;5074680;28;20044;-77
2023/09/02 07:57:48;;;;;;;16.50;12.07;;;18.20;99.90;;;;;;5075115;28;20043;-76
2023/09/02 08:00:14;;;;;;;15.80;11.30;;;18.30;99.90;;;;;;5075094;28;20042;-76
2023/09/02 08:02:40;;;;;;;14.05;11.52;;;18.40;99.90;;;;;;5074297;28;20036;-76
2023/09/02 08:05:06;;;;;;;14.90;10.95;;;18.50;99.90;;;;;;5073229;28;20028;-76
2023/09/02 08:07:32;;;;;;;15.63;10.73;;;18.60;99.90;;;;;;5087364;28;20442;-75
2023/09/02 08:09:57;;;;;;;14.10;9.85;;;18.70;99.90;;;;;;5074545;28;20035;-75
2023/09/02 08:12:23;;;;;;;13.77;9.75;;;18.70;99.90;;;;;;5074119;28;20089;-76
2023/09/02 08:14:48;;;;;;;11.32;9.23;;;18.80;99.90;;;;;;5074475;28;20032;-76
2023/09/02 08:17:15;;;;;;;14.02;9.60;;;18.80;99.90;;;;;;5074288;28;20032;-76
2023/09/02 08:19:40;;;;;;;13.60;9.85;;;18.90;99.90;;;;;;5074615;28;20036;-75
2023/09/02 08:22:06;;;;;;;16.30;9.95;;;19.00;99.90;;;;;;5074066;28;20024;-75
2023/09/02 08:24:31;;;;;;;10.73;8.82;;;19.10;99.90;;;;;;5074704;28;20028;-75
2023/09/02 08:26:57;;;;;;;15.38;9.48;;;19.10;99.90;;;;;;5073482;28;20305;-76
2023/09/02 08:29:22;;;;;;;14.43;9.38;;;19.20;99.90;;;;;;5074365;28;20115;-75
2023/09/02 08:31:55;;;;;;;14.23;9.40;;;19.30;99.90;;;;;;5074170;28;20032;-75
2023/09/02 08:34:21;;;;;;;12.93;9.77;;;19.40;99.90;;;;;;5074342;28;20314;-76
2023/09/02 08:36:47;;;;;;;15.23;9.88;;;19.50;99.90;;;;;;5064552;28;20050;-76
2023/09/02 08:39:12;;;;;;;11.63;9.35;;;19.50;99.90;;;;;;5073172;28;20047;-76
2023/09/02 08:41:40;;;;;;;13.88;9.57;;;19.60;99.90;;;;;;5073965;28;20054;-76
2023/09/02 08:44:07;;;;;;;15.75;10.57;;;19.70;99.90;;;;;;5073300;28;20043;-76
2023/09/02 08:46:40;;;;;;;12.07;9.27;;;19.70;99.90;;;;;;5073282;28;20527;-75
2023/09/02 08:49:05;;;;;;;14.32;9.02;;;19.80;99.90;;;;;;5067336;28;20044;-76
2023/09/02 08:51:33;;;;;;;12.90;9.15;;;19.80;99.90;;;;;;5073893;28;20096;-76
2023/09/02 08:53:59;;;;;;;13.02;9.27;;;19.90;99.90;;;;;;5076078;28;20097;-76
2023/09/02 08:56:26;;;;;;;12.10;8.80;;;20.00;99.90;;;;;;5066044;28;20176;-75
2023/09/02 08:58:55;;;;;;;11.55;8.57;;;20.00;99.90;;;;;;5072597;28;20319;-76
2023/09/02 09:01:22;;;;;;;11.80;8.82;;;20.00;99.90;;;;;;5070305;28;20456;-75
2023/09/02 09:03:55;;;;;;;12.10;9.00;;;20.00;99.90;;;;;;5074036;28;20089;-75
2023/09/02 09:06:23;;;;;;;13.32;8.27;;;20.10;99.90;;;;;;5074152;28;20395;-75
2023/09/02 09:08:50;;;;;;;14.50;8.55;;;20.10;99.90;;;;;;5074515;28;20119;-76
2023/09/02 09:11:17;;;;;;;12.18;8.05;;;20.20;99.90;;;;;;5074465;28;20036;-75
2023/09/02 09:13:46;;;;;;;13.48;8.73;;;20.20;99.90;;;;;;5074568;28;20403;-76
2023/09/02 09:16:24;;;;;;;12.65;8.00;;;20.20;99.90;;;;;;5069401;28;20040;-76
2023/09/02 09:18:50;;;;;;;12.20;8.15;;;20.30;99.90;;;;;;5067219;28;20040;-76
2023/09/02 09:21:16;;;;;;;11.93;8.18;;;20.30;99.90;;;;;;5077566;28;20054;-76
2023/09/02 09:23:42;;;;;;;11.70;9.20;;;20.40;99.90;;;;;;5080256;28;20032;-77
2023/09/02 09:26:10;;;;;;;10.68;8.05;;;20.30;99.90;;;;;;5075505;28;20032;-76
2023/09/02 09:28:50;;;;;;;10.63;8.10;;;20.30;99.90;;;;;;5074722;28;20097;-76
2023/09/02 09:31:17;;;;;;;12.23;8.00;;;20.40;99.90;;;;;;5077644;28;20495;-76
2023/09/02 09:33:58;;;;;;;12.52;8.25;;;20.40;99.90;;;;;;5072844;28;20033;-76
2023/09/02 09:36:25;;;;;;;12.52;7.97;;;20.40;99.90;;;;;;5071008;28;20032;-76
2023/09/02 09:38:58;;;;;;;10.40;7.80;;;20.30;99.90;;;;;;5070248;28;20044;-76
2023/09/02 09:41:25;;;;;;;11.60;7.80;;;20.30;99.90;;;;;;5076925;28;20056;-76
2023/09/02 09:44:07;;;;;;;12.82;8.57;;;20.20;99.90;;;;;;5071263;28;20555;-76
2023/09/02 09:46:48;;;;;;;11.35;8.48;;;20.10;99.90;;;;;;5073142;28;20115;-76
2023/09/02 09:49:22;;;;;;;12.88;8.73;;;19.90;99.90;;;;;;5071473;28;20063;-76
2023/09/02 09:52:10;;;;;;;12.63;8.18;;;20.00;99.90;;;;;;5072948;28;20047;-76
2023/09/02 09:54:40;;;;;;;14.50;8.82;;;20.00;99.90;;;;;;5068176;28;20160;-76
2023/09/02 09:57:07;;;;;;;17.30;9.02;;;20.00;99.90;;;;;;5072561;28;20032;-75
2023/09/02 09:59:36;;;;;;;11.90;7.97;;;20.20;99.90;;;;;;5075708;28;20072;-76
2023/09/02 10:02:04;;;;;;;13.10;8.98;;;20.20;99.90;;;;;;5079922;28;20544;-76
2023/09/02 10:04:30;;;;;;;12.45;8.88;;;20.20;99.90;;;;;;5071498;28;20530;-76
2023/09/02 10:07:03;;;;;;;12.05;8.52;;;20.10;99.90;;;;;;5069137;28;20051;-76
2023/09/02 10:09:42;;;;;;;12.63;8.10;;;20.00;99.90;;;;;;5072782;28;20060;-76
2023/09/02 10:12:18;;;;;;;12.45;7.38;;;19.90;99.90;;;;;;5072463;28;20101;-76
2023/09/02 10:14:45;;;;;;;13.23;7.45;;;20.10;99.90;;;;;;5075741;28;20051;-76
2023/09/02 10:17:12;;;;;;;11.90;7.45;;;20.20;99.90;;;;;;5069331;28;20086;-76
2023/09/02 10:19:39;;;;;;;12.77;7.75;;;20.40;99.90;;;;;;5071140;28;20107;-76
2023/09/02 10:22:05;;;;;;;10.23;6.82;;;20.60;99.90;;;;;;5074948;28;20086;-76
2023/09/02 10:24:40;;;;;;;10.95;7.18;;;20.90;99.90;;;;;;5080880;28;20092;-76
2023/09/02 10:27:14;;;;;;;10.55;7.00;;;21.00;99.90;;;;;;5073476;28;20043;-76
2023/09/02 10:29:43;;;;;;;8.75;6.63;;;21.10;99.90;;;;;;5086582;28;21190;-76
2023/09/02 10:32:12;;;;;;;10.50;7.15;;;21.20;99.90;;;;;;5072828;28;20044;-76
2023/09/02 10:34:53;;;;;;;9.23;6.07;;;21.40;99.90;;;;;;5070597;28;20408;-75
2023/09/02 10:37:24;;;;;;;8.35;5.85;;;21.40;99.90;;;;;;5071867;28;20036;-76
2023/09/02 10:40:05;;;;;;;9.48;7.07;;;21.30;99.90;;;;;;5070861;28;20032;-76
2023/09/02 10:42:31;;;;;;;12.70;7.00;;;21.30;99.90;;;;;;5075118;28;20036;-76
2023/09/02 10:44:57;;;;;;;11.02;7.30;;;21.20;99.90;;;;;;5077151;28;20028;-76
2023/09/02 10:47:23;;;;;;;9.45;6.35;;;21.20;99.90;;;;;;5072114;28;20119;-76
2023/09/02 10:49:50;;;;;;;10.85;7.22;;;21.00;99.90;;;;;;5064666;28;20090;-76
2023/09/02 10:52:15;;;;;;;12.98;7.43;;;20.90;99.90;;;;;;5074591;28;20048;-76
2023/09/02 10:55:01;;;;;;;9.27;6.35;;;20.90;99.90;;;;;;5063694;28;20464;-76
2023/09/02 10:57:28;;;;;;;8.82;6.28;;;20.90;99.90;;;;;;5092789;28;20040;-76
2023/09/02 11:00:13;;;;;;;8.55;6.55;;;21.00;99.90;;;;;;5069090;28;20045;-76
2023/09/02 11:02:40;;;;;;;9.57;5.97;;;21.30;99.90;;;;;;5069758;28;20050;-76
2023/09/02 11:05:06;;;;;;;11.18;6.93;;;21.50;99.90;;;;;;5075147;28;20529;-76
2023/09/02 11:07:33;;;;;;;11.38;6.47;;;21.70;99.90;;;;;;5079483;28;20063;-76
2023/09/02 11:10:00;;;;;;;8.13;6.63;;;21.50;99.90;;;;;;5079333;28;20185;-76
2023/09/02 11:12:27;;;;;;;8.68;6.63;;;21.40;99.90;;;;;;5076893;28;20451;-77
2023/09/02 11:15:08;;;;;;;9.50;6.32;;;21.30;99.90;;;;;;5079707;28;20430;-77
2023/09/02 11:17:38;;;;;;;9.70;6.85;;;21.30;99.90;;;;;;5061732;28;20036;-76
2023/09/02 11:20:08;;;;;;;9.63;6.50;;;21.80;99.90;;;;;;5062050;28;20039;-76
2023/09/02 11:22:57;;;;;;;9.10;6.20;;;22.10;99.90;;;;;;5079051;28;20027;-76
2023/09/02 11:25:33;;;;;;;8.60;6.00;;;22.50;99.90;;;;;;5075997;28;20146;-76
2023/09/02 11:28:01;;;;;;;8.63;5.85;;;22.80;99.90;;;;;;5074443;28;20041;-76
2023/09/02 11:30:29;;;;;;;9.63;5.90;;;23.00;99.90;;;;;;5075058;28;20036;-76
2023/09/02 11:32:56;;;;;;;9.77;5.60;;;23.20;99.90;;;;;;5086477;28;20044;-75
2023/09/02 11:35:27;;;;;;;7.53;5.32;;;23.00;99.90;;;;;;5073762;28;20135;-76
2023/09/02 11:37:52;;;;;;;7.55;5.50;;;22.60;99.90;;;;;;5074289;28;20120;-75
2023/09/02 11:40:20;;;;;;;9.02;5.60;;;22.30;99.90;;;;;;5076114;28;20114;-76
2023/09/02 11:42:51;;;;;;;7.40;5.97;;;21.90;99.90;;;;;;5076141;28;20066;-76
2023/09/02 11:45:17;;;;;;;8.38;5.90;;;21.80;99.90;;;;;;5076881;28;20055;-76
2023/09/02 11:47:43;;;;;;;7.97;6.00;;;22.20;99.90;;;;;;5057489;28;20126;-76
2023/09/02 11:50:17;;;;;;;9.75;5.43;;;22.60;99.90;;;;;;5085748;28;20040;-75
2023/09/02 11:52:43;;;;;;;7.00;5.20;;;22.80;99.90;;;;;;5070480;28;20043;-75
2023/09/02 11:55:11;;;;;;;9.20;4.70;;;22.80;99.90;;;;;;5076367;28;20093;-75
2023/09/02 11:57:37;;;;;;;6.25;4.53;;;22.20;99.90;;;;;;5075581;28;20142;-76
2023/09/02 12:00:03;;;;;;;6.85;4.43;;;22.00;99.90;;;;;;5073682;28;20040;-76
2023/09/02 12:02:29;;;;;;;7.22;4.72;;;22.40;99.90;;;;;;5074187;28;20457;-75
2023/09/02 12:04:55;;;;;;;7.45;3.80;;;22.50;99.90;;;;;;5082622;28;20096;-75
2023/09/02 12:07:21;;;;;;;6.82;3.90;;;22.70;99.90;;;;;;5092823;28;20464;-76
2023/09/02 12:09:47;;;;;;;7.53;3.53;;;23.10;99.90;;;;;;5078613;28;20079;-75
2023/09/02 12:12:15;;;;;;;6.70;3.80;;;23.30;99.90;;;;;;5056196;28;20043;-76
2023/09/02 12:14:41;;;;;;;8.85;4.10;;;23.60;99.90;;;;;;5073724;28;21461;-75
2023/09/02 12:17:07;;;;;;;7.82;3.63;;;23.60;99.90;;;;;;5074517;28;20055;-75
2023/09/02 12:19:33;;;;;;;6.05;3.30;;;23.40;99.90;;;;;;5081747;28;20040;-75
2023/09/02 12:21:59;;;;;;;4.63;3.55;;;23.80;99.90;;;;;;5074558;28;20036;-74
2023/09/02 12:24:26;;;;;;;5.75;3.50;;;23.70;99.90;;;;;;5073190;28;20536;-76
2023/09/02 12:26:51;;;;;;;5.18;3.58;;;23.90;99.90;;;;;;5073960;28;20036;-76
2023/09/02 12:29:22;;;;;;;6.15;3.45;;;24.00;99.90;;;;;;5074367;28;20150;-76
2023/09/02 12:32:01;;;;;;;6.00;3.58;;;23.60;99.90;;;;;;5092783;28;20043;-76
2023/09/02 12:34:34;;;;;;;6.25;3.75;;;23.70;99.90;;;;;;5076291;28;20032;-77
2023/09/02 12:37:20;;;;;;;4.90;3.27;;;24.10;99.90;;;;;;5082809;28;20051;-76
2023/09/02 12:39:49;;;;;;;5.18;3.00;;;24.50;99.90;;;;;;5074411;28;20177;-76
2023/09/02 12:42:24;;;;;;;5.70;3.20;;;24.60;99.90;;;;;;5074481;28;20036;-76